Time;durP1;ratioP1;P1;durP2;ratioP2;P2;SDS_P1;SDS_P2;PMS_P1;PMS_P2;Temp;Humidity;BMP_temperature;BMP_pressure;BME280_temperature;BME280_humidity;BME280_pressure;Samples;Min_cycle;Max_cycle;Signal;HPM_P1;HPM_P2
2023/08/25 00:00:09;;;;;;;3.33;1.50;;;22.10;99.90;;;;;;5089026;28;20424;-69
2023/08/25 00:02:36;;;;;;;2.70;1.90;;;22.20;99.90;;;;;;5088861;28;20630;-69
2023/08/25 00:05:03;;;;;;;3.90;2.07;;;22.20;99.90;;;;;;5088617;28;20549;-69
2023/08/25 00:07:29;;;;;;;3.27;1.87;;;22.30;99.90;;;;;;5088788;28;20601;-69
2023/08/25 00:09:55;;;;;;;2.83;2.00;;;22.30;99.90;;;;;;5088943;28;20970;-69
2023/08/25 00:12:20;;;;;;;8.23;2.40;;;22.30;99.90;;;;;;5088839;28;20431;-69
2023/08/25 00:14:46;;;;;;;4.50;2.37;;;22.40;99.90;;;;;;5088408;28;20214;-69
2023/08/25 00:17:12;;;;;;;3.60;2.27;;;22.50;99.90;;;;;;5088319;28;20219;-69
2023/08/25 00:19:37;;;;;;;6.07;1.90;;;22.50;99.90;;;;;;5088918;28;20206;-68
2023/08/25 00:22:03;;;;;;;6.30;2.00;;;22.50;99.90;;;;;;5089214;28;20190;-67
2023/08/25 00:24:31;;;;;;;3.57;2.30;;;22.50;99.90;;;;;;5088805;28;20208;-69
2023/08/25 00:26:56;;;;;;;4.60;2.10;;;22.60;99.90;;;;;;5089339;28;20889;-68
2023/08/25 00:29:22;;;;;;;4.07;1.93;;;22.70;99.90;;;;;;5089088;28;20892;-68
2023/08/25 00:31:47;;;;;;;6.40;1.77;;;22.80;99.90;;;;;;5089148;28;20234;-68
2023/08/25 00:34:13;;;;;;;5.47;1.93;;;22.70;99.90;;;;;;5088494;28;20205;-68
2023/08/25 00:36:38;;;;;;;5.20;2.30;;;22.80;99.90;;;;;;5088441;28;20207;-68
2023/08/25 00:39:04;;;;;;;3.83;2.00;;;22.80;99.90;;;;;;5088657;28;20193;-68
2023/08/25 00:41:30;;;;;;;3.53;2.30;;;22.80;99.90;;;;;;5088827;28;20205;-68
2023/08/25 00:43:55;;;;;;;3.70;2.20;;;22.80;99.90;;;;;;5088567;28;20694;-67
2023/08/25 00:46:22;;;;;;;2.60;2.00;;;22.80;99.90;;;;;;5088692;28;20188;-68
2023/08/25 00:48:48;;;;;;;2.17;1.93;;;22.80;99.90;;;;;;5088774;28;20254;-69
2023/08/25 00:51:14;;;;;;;5.87;2.00;;;22.80;99.90;;;;;;5088566;28;20415;-69
2023/08/25 00:53:41;;;;;;;6.63;2.17;;;22.90;99.90;;;;;;5088965;28;20422;-68
2023/08/25 00:56:10;;;;;;;3.03;2.07;;;23.00;99.90;;;;;;5086736;28;20198;-69
2023/08/25 00:58:35;;;;;;;3.47;2.27;;;23.00;99.90;;;;;;5088764;28;20977;-68
2023/08/25 01:01:04;;;;;;;3.10;2.30;;;23.10;99.90;;;;;;5086977;28;20432;-68
2023/08/25 01:03:30;;;;;;;5.10;2.40;;;23.20;99.90;;;;;;5088475;28;20196;-69
2023/08/25 01:05:55;;;;;;;2.20;2.00;;;23.10;99.90;;;;;;5088554;28;20427;-69
2023/08/25 01:08:22;;;;;;;3.93;2.30;;;23.10;99.90;;;;;;5086969;28;20268;-69
2023/08/25 01:11:26;;;;;;;5.20;2.57;;;23.20;99.90;;;;;;5088379;28;20427;-69
2023/08/25 01:14:01;;;;;;;3.53;2.10;;;23.10;99.90;;;;;;5087957;28;20953;-69
2023/08/25 01:16:35;;;;;;;4.63;2.10;;;23.20;99.90;;;;;;5088209;28;20426;-69
2023/08/25 01:19:03;;;;;;;3.43;2.20;;;23.20;99.90;;;;;;5088217;28;20407;-69
2023/08/25 01:21:32;;;;;;;5.33;2.27;;;23.10;99.90;;;;;;5088334;28;20422;-69
2023/08/25 01:24:10;;;;;;;2.50;2.27;;;23.10;99.90;;;;;;5070572;28;20439;-69
2023/08/25 01:26:37;;;;;;;3.80;2.07;;;23.20;99.90;;;;;;5089007;28;20410;-69
2023/08/25 01:29:02;;;;;;;6.73;2.07;;;23.10;99.90;;;;;;5092115;28;20472;-69
2023/08/25 01:31:29;;;;;;;4.70;2.23;;;23.10;99.90;;;;;;5092394;28;20823;-69
2023/08/25 01:33:55;;;;;;;5.37;3.00;;;23.00;99.90;;;;;;5092428;28;20285;-69
2023/08/25 01:36:33;;;;;;;6.07;2.70;;;22.90;99.90;;;;;;5092445;28;20544;-69
2023/08/25 01:39:10;;;;;;;4.80;1.90;;;22.90;99.90;;;;;;5092389;28;20203;-69
2023/08/25 01:41:58;;;;;;;3.40;1.97;;;22.80;99.90;;;;;;5092398;28;20470;-69
2023/08/25 01:44:26;;;;;;;4.80;2.47;;;22.70;99.90;;;;;;5092184;28;20989;-69
2023/08/25 01:46:57;;;;;;;3.97;2.27;;;22.50;99.90;;;;;;5092269;28;20419;-69
2023/08/25 01:49:24;;;;;;;2.40;2.00;;;22.60;99.90;;;;;;5091991;28;20523;-69
2023/08/25 01:51:51;;;;;;;4.40;2.07;;;22.60;99.90;;;;;;5090553;28;20428;-69
2023/08/25 01:54:16;;;;;;;4.70;1.70;;;22.50;99.90;;;;;;5091453;28;20854;-69
2023/08/25 01:56:42;;;;;;;5.90;2.03;;;22.50;99.90;;;;;;5089734;28;20461;-68
2023/08/25 01:59:07;;;;;;;4.30;2.00;;;22.40;99.90;;;;;;5091387;28;20691;-69
2023/08/25 02:01:33;;;;;;;8.70;2.63;;;22.40;99.90;;;;;;5091264;28;20213;-69
2023/08/25 02:03:59;;;;;;;2.10;1.90;;;22.40;99.90;;;;;;5089785;28;20197;-69
2023/08/25 02:06:24;;;;;;;6.20;2.80;;;22.40;99.90;;;;;;5091374;28;20260;-69
2023/08/25 02:08:50;;;;;;;7.23;2.67;;;22.50;99.90;;;;;;5091083;28;20568;-69
2023/08/25 02:11:15;;;;;;;3.70;2.60;;;22.50;99.90;;;;;;5091016;28;20180;-69
2023/08/25 02:13:41;;;;;;;3.67;1.87;;;22.60;99.90;;;;;;5090909;28;20670;-69
2023/08/25 02:16:07;;;;;;;4.10;2.20;;;22.60;99.90;;;;;;5090850;28;20186;-68
2023/08/25 02:18:32;;;;;;;4.50;2.17;;;22.60;99.90;;;;;;5089388;28;20766;-68
2023/08/25 02:20:58;;;;;;;2.77;2.07;;;22.60;99.90;;;;;;5090858;28;20179;-69
2023/08/25 02:23:24;;;;;;;6.23;2.50;;;22.60;99.90;;;;;;5090813;28;20266;-68
2023/08/25 02:25:51;;;;;;;2.73;1.87;;;22.70;99.90;;;;;;5090596;28;20300;-68
2023/08/25 02:28:16;;;;;;;10.70;2.57;;;22.60;99.90;;;;;;5089069;28;20182;-68
2023/08/25 02:30:42;;;;;;;4.43;2.60;;;22.60;99.90;;;;;;5090610;28;20427;-68
2023/08/25 02:33:07;;;;;;;3.53;2.53;;;22.50;99.90;;;;;;5090549;28;20567;-68
2023/08/25 02:35:33;;;;;;;7.20;3.07;;;22.50;99.90;;;;;;5090431;28;20629;-68
2023/08/25 02:38:17;;;;;;;5.10;3.23;;;22.60;99.90;;;;;;5090146;28;20212;-68
2023/08/25 02:40:42;;;;;;;5.33;2.43;;;22.60;99.90;;;;;;5089186;28;20593;-68
2023/08/25 02:43:08;;;;;;;7.90;2.63;;;22.70;99.90;;;;;;5090297;28;20421;-68
2023/08/25 02:45:35;;;;;;;6.87;2.60;;;22.70;99.90;;;;;;5090237;28;20198;-68
2023/08/25 02:48:01;;;;;;;5.30;2.47;;;22.70;99.90;;;;;;5090150;28;20332;-68
2023/08/25 02:50:27;;;;;;;3.43;2.23;;;22.70;99.90;;;;;;5090214;28;20433;-68
2023/08/25 02:52:53;;;;;;;3.07;2.43;;;22.70;99.90;;;;;;5090157;28;20423;-68
2023/08/25 02:55:20;;;;;;;4.67;2.67;;;22.70;99.90;;;;;;5089967;28;20536;-68
2023/08/25 02:57:47;;;;;;;8.40;2.50;;;22.60;99.90;;;;;;5089934;28;20457;-68
2023/08/25 03:00:14;;;;;;;4.43;2.63;;;22.60;99.90;;;;;;5089902;28;20453;-72
2023/08/25 03:02:43;;;;;;;6.30;3.63;;;22.70;99.90;;;;;;5088512;28;20411;-73
2023/08/25 03:05:10;;;;;;;6.40;3.23;;;22.60;99.90;;;;;;5088110;28;20534;-73
2023/08/25 03:07:35;;;;;;;3.80;2.70;;;22.70;99.90;;;;;;5089753;28;20513;-73
2023/08/25 03:10:02;;;;;;;4.97;2.80;;;22.50;99.90;;;;;;5088325;28;20523;-73
2023/08/25 03:12:28;;;;;;;7.53;3.00;;;22.50;99.90;;;;;;5088305;28;20429;-73
2023/08/25 03:14:54;;;;;;;8.73;2.87;;;22.60;99.90;;;;;;5088054;28;20453;-73
2023/08/25 03:17:20;;;;;;;5.67;3.20;;;22.60;99.90;;;;;;5089970;28;20466;-73
2023/08/25 03:19:46;;;;;;;3.20;2.73;;;22.60;99.90;;;;;;5089747;28;20438;-73
2023/08/25 03:22:11;;;;;;;5.07;3.00;;;22.70;99.90;;;;;;5089751;28;20910;-73
2023/08/25 03:24:37;;;;;;;4.87;2.70;;;22.70;99.90;;;;;;5071152;28;20213;-72
2023/08/25 03:27:03;;;;;;;8.63;2.93;;;22.70;99.90;;;;;;5089670;28;20196;-74
2023/08/25 03:29:31;;;;;;;3.50;2.47;;;22.80;99.90;;;;;;5089498;28;20620;-72
2023/08/25 03:31:57;;;;;;;7.03;2.83;;;22.80;99.90;;;;;;5088171;28;20450;-72
2023/08/25 03:34:23;;;;;;;3.40;2.30;;;22.80;99.90;;;;;;5089326;28;20843;-72
2023/08/25 03:36:48;;;;;;;3.20;2.50;;;22.70;99.90;;;;;;5070673;28;20513;-72
2023/08/25 03:39:14;;;;;;;6.20;2.63;;;22.70;99.90;;;;;;5089209;28;20187;-73
2023/08/25 03:41:40;;;;;;;4.37;2.47;;;22.70;99.90;;;;;;5089310;28;20272;-73
2023/08/25 03:44:05;;;;;;;5.67;2.53;;;22.70;99.90;;;;;;5087694;28;20201;-73
2023/08/25 03:46:33;;;;;;;4.73;2.80;;;22.70;99.90;;;;;;5088015;28;20196;-72
2023/08/25 03:48:59;;;;;;;10.57;2.40;;;22.60;99.90;;;;;;5087618;28;20177;-72
2023/08/25 03:51:25;;;;;;;2.20;2.00;;;22.50;99.90;;;;;;5088204;28;20829;-71
2023/08/25 03:53:50;;;;;;;3.83;2.70;;;22.40;99.90;;;;;;5088858;28;20212;-72
2023/08/25 03:56:16;;;;;;;4.37;2.60;;;22.30;99.90;;;;;;5087581;28;20210;-72
2023/08/25 03:58:42;;;;;;;5.37;2.60;;;22.30;99.90;;;;;;5088867;28;20208;-72
2023/08/25 04:01:08;;;;;;;8.00;2.70;;;22.30;99.90;;;;;;5088876;28;20171;-73
2023/08/25 04:03:34;;;;;;;3.53;2.33;;;22.30;99.90;;;;;;5088694;28;20420;-74
2023/08/25 04:06:00;;;;;;;7.50;2.67;;;22.40;99.90;;;;;;5087224;28;20207;-73
2023/08/25 04:08:25;;;;;;;3.50;2.70;;;22.40;99.90;;;;;;5088945;28;20416;-73
2023/08/25 04:10:52;;;;;;;3.30;2.70;;;22.50;99.90;;;;;;5087229;28;20192;-73
2023/08/25 04:13:18;;;;;;;4.47;2.37;;;22.60;99.90;;;;;;5087190;28;20267;-73
2023/08/25 04:15:43;;;;;;;3.80;2.20;;;22.70;99.90;;;;;;5070636;28;20535;-73
2023/08/25 04:18:09;;;;;;;4.03;2.07;;;22.70;99.90;;;;;;5087106;28;20478;-74
2023/08/25 04:20:34;;;;;;;5.00;2.20;;;22.90;99.90;;;;;;5087282;28;20189;-73
2023/08/25 04:23:03;;;;;;;2.20;1.63;;;23.10;99.90;;;;;;5086600;28;20840;-72
2023/08/25 04:25:32;;;;;;;7.93;2.47;;;23.10;99.90;;;;;;5087210;28;20227;-75
2023/08/25 04:27:58;;;;;;;7.60;2.73;;;23.00;99.90;;;;;;5087246;28;20423;-75
2023/08/25 04:30:23;;;;;;;3.47;2.13;;;23.00;99.90;;;;;;5085777;28;20484;-73
2023/08/25 04:32:50;;;;;;;3.60;2.50;;;22.90;99.90;;;;;;5087155;28;20534;-74
2023/08/25 04:35:16;;;;;;;4.20;2.47;;;22.90;99.90;;;;;;5087151;28;20228;-72
2023/08/25 04:37:47;;;;;;;3.00;2.70;;;22.80;99.90;;;;;;5087030;28;20517;-71
2023/08/25 04:40:15;;;;;;;4.93;2.30;;;22.70;99.90;;;;;;5087231;28;21011;-72
2023/08/25 04:42:41;;;;;;;4.80;3.13;;;22.60;99.90;;;;;;5085334;28;20454;-73
2023/08/25 04:45:09;;;;;;;7.93;2.67;;;22.50;99.90;;;;;;5087054;28;20503;-75
2023/08/25 04:47:34;;;;;;;5.03;2.63;;;22.40;99.90;;;;;;5085603;28;20446;-73
2023/08/25 04:50:03;;;;;;;9.90;3.20;;;22.40;99.90;;;;;;5087073;28;20412;-73
2023/08/25 04:52:30;;;;;;;5.80;2.77;;;22.30;99.90;;;;;;5087222;28;20176;-73
2023/08/25 04:54:56;;;;;;;3.90;2.13;;;22.30;99.90;;;;;;5086641;28;20985;-74
2023/08/25 04:57:22;;;;;;;5.40;2.20;;;22.20;99.90;;;;;;5086758;28;20462;-74
2023/08/25 04:59:47;;;;;;;11.03;3.20;;;22.20;99.90;;;;;;5087244;28;20173;-73
2023/08/25 05:02:13;;;;;;;3.53;2.20;;;22.20;99.90;;;;;;5088788;28;20424;-72
2023/08/25 05:04:38;;;;;;;2.83;2.47;;;22.10;99.90;;;;;;5089073;28;20746;-74
2023/08/25 05:07:04;;;;;;;7.03;3.10;;;22.00;99.90;;;;;;5088964;28;20218;-73
2023/08/25 05:09:30;;;;;;;12.53;2.40;;;21.90;99.90;;;;;;5090355;28;20188;-73
2023/08/25 05:11:55;;;;;;;4.97;2.70;;;21.90;99.90;;;;;;5090571;28;20238;-74
2023/08/25 05:14:21;;;;;;;3.87;2.53;;;21.90;99.90;;;;;;5090743;28;20204;-74
2023/08/25 05:16:46;;;;;;;3.10;2.80;;;21.90;99.90;;;;;;5089015;28;20189;-74
2023/08/25 05:19:13;;;;;;;3.33;2.20;;;21.80;99.90;;;;;;5089228;28;20228;-73
2023/08/25 05:21:39;;;;;;;5.87;2.60;;;21.90;99.90;;;;;;5090769;28;20176;-74
2023/08/25 05:24:16;;;;;;;3.33;2.43;;;21.90;99.90;;;;;;5090638;28;20434;-74
2023/08/25 05:26:43;;;;;;;3.30;2.57;;;22.00;99.90;;;;;;5090295;28;20432;-73
2023/08/25 05:29:08;;;;;;;10.93;2.80;;;22.00;99.90;;;;;;5090123;28;20528;-73
2023/08/25 05:31:34;;;;;;;4.73;2.27;;;22.10;99.90;;;;;;5088592;28;21035;-73
2023/08/25 05:34:00;;;;;;;8.77;2.90;;;22.10;99.90;;;;;;5089977;28;20222;-74
2023/08/25 05:36:25;;;;;;;3.10;2.20;;;22.10;99.90;;;;;;5088501;28;20215;-74
2023/08/25 05:38:51;;;;;;;4.10;2.60;;;22.10;99.90;;;;;;5089894;28;20306;-74
2023/08/25 05:41:17;;;;;;;4.87;2.60;;;22.20;99.90;;;;;;5088245;28;20211;-73
2023/08/25 05:43:42;;;;;;;9.93;3.07;;;22.30;99.90;;;;;;5088403;28;20263;-74
2023/08/25 05:46:08;;;;;;;4.80;2.13;;;22.30;99.90;;;;;;5089878;28;20727;-74
2023/08/25 05:48:34;;;;;;;4.30;2.93;;;22.40;99.90;;;;;;5088655;28;20187;-74
2023/08/25 05:51:00;;;;;;;6.43;2.43;;;22.40;99.90;;;;;;5090365;28;20421;-73
2023/08/25 05:53:26;;;;;;;2.97;2.67;;;22.40;99.90;;;;;;5090310;28;20185;-73
2023/08/25 05:55:51;;;;;;;4.10;2.97;;;22.40;99.90;;;;;;5090333;28;20211;-73
2023/08/25 05:58:17;;;;;;;6.43;2.37;;;22.40;99.90;;;;;;5090363;28;20214;-73
2023/08/25 06:00:42;;;;;;;4.10;2.40;;;22.40;99.90;;;;;;5089157;28;20192;-74
2023/08/25 06:03:08;;;;;;;6.77;3.10;;;22.50;99.90;;;;;;5088598;28;20229;-73
2023/08/25 06:05:34;;;;;;;7.53;3.10;;;22.50;99.90;;;;;;5089712;28;20203;-73
2023/08/25 06:08:00;;;;;;;5.53;2.80;;;22.50;99.90;;;;;;5090290;28;20265;-74
2023/08/25 06:10:26;;;;;;;5.50;2.70;;;22.50;99.90;;;;;;5088573;28;20188;-73
2023/08/25 06:12:52;;;;;;;7.23;2.90;;;22.60;99.90;;;;;;5087752;28;20849;-72
2023/08/25 06:15:18;;;;;;;8.03;2.40;;;22.70;99.90;;;;;;5089614;28;20451;-74
2023/08/25 06:17:43;;;;;;;6.27;2.53;;;22.80;99.90;;;;;;5089621;28;20213;-74
2023/08/25 06:20:09;;;;;;;12.33;3.83;;;23.00;99.90;;;;;;5087867;28;20185;-73
2023/08/25 06:22:35;;;;;;;5.77;2.90;;;23.20;99.90;;;;;;5088186;28;20612;-73
2023/08/25 06:25:00;;;;;;;7.00;2.57;;;23.30;99.90;;;;;;5087908;28;20891;-72
2023/08/25 06:27:26;;;;;;;6.90;3.40;;;23.50;99.90;;;;;;5089353;28;20192;-72
2023/08/25 06:29:52;;;;;;;6.33;3.20;;;23.50;99.90;;;;;;5089570;28;20611;-73
2023/08/25 06:32:17;;;;;;;6.63;3.40;;;23.60;99.90;;;;;;5089439;28;20236;-72
2023/08/25 06:34:48;;;;;;;3.73;2.67;;;23.50;99.90;;;;;;5089359;28;20735;-71
2023/08/25 06:37:13;;;;;;;7.73;2.77;;;23.50;99.90;;;;;;5089375;28;20602;-69
2023/08/25 06:39:40;;;;;;;6.77;3.10;;;23.30;99.90;;;;;;5089145;28;20424;-68
2023/08/25 06:42:06;;;;;;;5.60;3.33;;;23.10;99.90;;;;;;5089164;28;20180;-68
2023/08/25 06:44:32;;;;;;;5.67;2.63;;;22.80;99.90;;;;;;5088923;28;20493;-67
2023/08/25 06:46:57;;;;;;;4.17;2.90;;;22.80;99.90;;;;;;5089028;28;20578;-68
2023/08/25 06:49:23;;;;;;;3.07;2.77;;;22.70;99.90;;;;;;5088869;28;20429;-67
2023/08/25 06:51:49;;;;;;;5.20;3.03;;;22.60;99.90;;;;;;5087500;28;20226;-67
2023/08/25 06:54:15;;;;;;;5.23;3.03;;;22.60;99.90;;;;;;5087189;28;20638;-68
2023/08/25 06:56:40;;;;;;;8.00;3.60;;;22.60;99.90;;;;;;5088959;28;20414;-68
2023/08/25 06:59:06;;;;;;;5.50;2.83;;;22.70;99.90;;;;;;5089032;28;20188;-68
2023/08/25 07:01:32;;;;;;;7.77;3.80;;;22.70;99.90;;;;;;5088773;28;20306;-68
2023/08/25 07:03:57;;;;;;;8.53;3.50;;;22.70;99.90;;;;;;5087047;28;20218;-68
2023/08/25 07:06:23;;;;;;;6.80;3.60;;;22.80;99.90;;;;;;5088698;28;20196;-69
2023/08/25 07:08:48;;;;;;;5.60;2.97;;;22.80;99.90;;;;;;5088727;28;20275;-68
2023/08/25 07:11:14;;;;;;;5.43;2.93;;;22.80;99.90;;;;;;5088789;28;20191;-68
2023/08/25 07:13:40;;;;;;;10.40;3.60;;;22.80;99.90;;;;;;5088616;28;20258;-68
2023/08/25 07:16:05;;;;;;;7.63;3.07;;;22.80;99.90;;;;;;5087289;28;20214;-68
2023/08/25 07:18:31;;;;;;;4.00;2.73;;;22.90;99.90;;;;;;5088844;28;20220;-68
2023/08/25 07:21:03;;;;;;;5.97;3.47;;;22.90;99.90;;;;;;5088688;28;20657;-68
2023/08/25 07:23:28;;;;;;;7.50;2.97;;;23.00;99.90;;;;;;5088906;28;20177;-68
2023/08/25 07:25:54;;;;;;;7.47;3.80;;;22.90;99.90;;;;;;5088388;28;20431;-68
2023/08/25 07:28:19;;;;;;;5.17;2.53;;;22.90;99.90;;;;;;5088965;28;20197;-68
2023/08/25 07:30:45;;;;;;;8.60;3.17;;;22.90;99.90;;;;;;5087470;28;20197;-68
2023/08/25 07:33:10;;;;;;;12.80;3.73;;;22.80;99.90;;;;;;5088867;28;20660;-67
2023/08/25 07:35:36;;;;;;;4.27;2.97;;;22.80;99.90;;;;;;5088638;28;20250;-67
2023/08/25 07:38:03;;;;;;;4.67;3.33;;;22.70;99.90;;;;;;5088461;28;20216;-68
2023/08/25 07:40:28;;;;;;;10.93;3.50;;;22.70;99.90;;;;;;5087079;28;20185;-67
2023/08/25 07:43:00;;;;;;;7.77;3.13;;;22.60;99.90;;;;;;5088431;28;20428;-67
2023/08/25 07:45:27;;;;;;;6.80;3.53;;;22.50;99.90;;;;;;5088418;28;20209;-67
2023/08/25 07:47:55;;;;;;;4.33;3.30;;;22.40;99.90;;;;;;5088147;28;20428;-67
2023/08/25 07:50:21;;;;;;;6.37;4.00;;;22.40;99.90;;;;;;5088145;28;20452;-67
2023/08/25 07:52:46;;;;;;;10.70;3.70;;;22.30;99.90;;;;;;5088362;28;20537;-68
2023/08/25 07:55:12;;;;;;;4.40;2.87;;;22.30;99.90;;;;;;5088109;28;20561;-71
2023/08/25 07:57:38;;;;;;;3.93;3.10;;;22.20;99.90;;;;;;5088377;28;20954;-70
2023/08/25 08:00:06;;;;;;;8.83;3.80;;;22.20;99.90;;;;;;5088588;28;20422;-71
2023/08/25 08:02:33;;;;;;;4.00;3.10;;;22.20;99.90;;;;;;5086741;28;20183;-71
2023/08/25 08:04:58;;;;;;;4.83;3.00;;;22.20;99.90;;;;;;5088079;28;20550;-70
2023/08/25 08:07:24;;;;;;;9.20;3.30;;;22.10;99.90;;;;;;5088374;28;20976;-70
2023/08/25 08:09:50;;;;;;;4.20;3.57;;;22.00;99.90;;;;;;5086710;28;20283;-70
2023/08/25 08:12:16;;;;;;;11.20;2.90;;;22.00;99.90;;;;;;5088287;28;20678;-70
2023/08/25 08:14:42;;;;;;;6.43;3.27;;;21.90;99.90;;;;;;5086557;28;20229;-71
2023/08/25 08:17:08;;;;;;;6.97;3.53;;;21.80;99.90;;;;;;5087645;28;20473;-70
2023/08/25 08:19:34;;;;;;;9.90;3.60;;;21.70;99.90;;;;;;5087648;28;20709;-71
2023/08/25 08:22:00;;;;;;;5.77;3.53;;;21.60;99.90;;;;;;5085845;28;20464;-71
2023/08/25 08:24:26;;;;;;;3.27;3.07;;;21.20;99.90;;;;;;5087069;28;20433;-71
2023/08/25 08:26:51;;;;;;;5.13;3.23;;;21.20;99.90;;;;;;5087769;28;20735;-70
2023/08/25 08:29:17;;;;;;;5.83;3.53;;;21.10;99.90;;;;;;5086330;28;20418;-72
2023/08/25 08:31:44;;;;;;;10.53;4.00;;;21.00;99.90;;;;;;5087455;28;20187;-71
2023/08/25 08:34:10;;;;;;;6.10;2.97;;;20.80;99.90;;;;;;5086055;28;20209;-72
2023/08/25 08:36:36;;;;;;;5.43;3.60;;;20.80;99.90;;;;;;5086967;28;20424;-72
2023/08/25 08:39:03;;;;;;;5.90;3.80;;;20.70;99.90;;;;;;5091662;28;20229;-72
2023/08/25 08:41:30;;;;;;;4.40;3.67;;;20.70;99.90;;;;;;5090103;28;20658;-72
2023/08/25 08:44:00;;;;;;;9.10;4.03;;;20.70;99.90;;;;;;5091561;28;20485;-72
2023/08/25 08:46:28;;;;;;;12.57;4.03;;;20.70;99.90;;;;;;5091562;28;20409;-72
2023/08/25 08:48:54;;;;;;;4.60;3.83;;;20.70;99.90;;;;;;5091428;28;20934;-73
2023/08/25 08:51:21;;;;;;;5.20;3.70;;;20.80;99.90;;;;;;5089926;28;20424;-72
2023/08/25 08:53:48;;;;;;;6.80;4.20;;;20.80;99.90;;;;;;5090944;28;20464;-73
2023/08/25 08:56:15;;;;;;;6.23;3.33;;;20.80;99.90;;;;;;5091372;28;21331;-72
2023/08/25 08:58:42;;;;;;;6.80;3.20;;;20.80;99.90;;;;;;5072764;28;20483;-72
2023/08/25 09:01:10;;;;;;;17.10;4.10;;;20.90;99.90;;;;;;5091182;28;20421;-72
2023/08/25 09:03:38;;;;;;;6.10;3.60;;;20.90;99.90;;;;;;5089405;28;20807;-72
2023/08/25 09:06:04;;;;;;;5.17;3.93;;;20.90;99.90;;;;;;5089495;28;20516;-72
2023/08/25 09:08:35;;;;;;;5.27;3.90;;;21.00;99.90;;;;;;5089585;28;20429;-72
2023/08/25 09:11:03;;;;;;;5.43;3.67;;;21.00;99.90;;;;;;5089314;28;20446;-72
2023/08/25 09:13:34;;;;;;;10.67;3.77;;;21.20;99.90;;;;;;5090883;28;20848;-72
2023/08/25 09:16:00;;;;;;;3.00;2.80;;;21.20;99.90;;;;;;5089135;28;20427;-72
2023/08/25 09:18:34;;;;;;;2.83;2.60;;;21.20;99.90;;;;;;5090890;28;20471;-72
2023/08/25 09:21:03;;;;;;;4.83;2.77;;;21.20;99.90;;;;;;5090682;28;20937;-71
2023/08/25 09:23:29;;;;;;;6.00;2.90;;;21.30;99.90;;;;;;5089053;28;20913;-71
2023/08/25 09:25:56;;;;;;;5.90;2.70;;;21.40;99.90;;;;;;5089123;28;20421;-72
2023/08/25 09:28:24;;;;;;;3.90;3.00;;;21.40;99.90;;;;;;5090962;28;20871;-71
2023/08/25 09:30:50;;;;;;;4.10;2.80;;;21.40;99.90;;;;;;5090942;28;20516;-71
2023/08/25 09:33:15;;;;;;;3.33;3.03;;;21.40;99.90;;;;;;5091039;28;20511;-71
2023/08/25 09:35:42;;;;;;;2.70;2.50;;;21.40;99.90;;;;;;5072502;28;20214;-71
2023/08/25 09:38:19;;;;;;;2.97;2.50;;;21.60;99.90;;;;;;5091024;28;20314;-71
2023/08/25 09:40:46;;;;;;;3.00;2.07;;;21.70;99.90;;;;;;5090794;28;21129;-71
2023/08/25 09:43:12;;;;;;;3.73;1.93;;;21.80;99.90;;;;;;5090787;28;20446;-70
2023/08/25 09:45:39;;;;;;;2.40;1.80;;;21.80;99.90;;;;;;5090788;28;20433;-71
2023/08/25 09:48:07;;;;;;;4.57;2.83;;;21.80;99.90;;;;;;5090786;28;20240;-70
2023/08/25 09:50:40;;;;;;;3.17;2.00;;;22.00;99.90;;;;;;5090896;28;20475;-70
2023/08/25 09:53:07;;;;;;;2.03;1.70;;;22.10;99.90;;;;;;5090946;28;20969;-70
2023/08/25 09:55:38;;;;;;;2.50;2.00;;;22.20;99.90;;;;;;5089079;28;20485;-70
2023/08/25 09:58:11;;;;;;;2.77;2.30;;;22.30;99.90;;;;;;5090491;28;20988;-70
2023/08/25 10:00:38;;;;;;;4.43;1.93;;;22.40;99.90;;;;;;5090634;28;20929;-70
2023/08/25 10:03:06;;;;;;;3.13;2.23;;;22.50;99.90;;;;;;5090446;28;20487;-70
2023/08/25 10:05:32;;;;;;;2.53;1.90;;;22.70;99.90;;;;;;5088759;28;20471;-70
2023/08/25 10:07:59;;;;;;;2.77;1.70;;;22.90;99.90;;;;;;5090339;28;20453;-70
2023/08/25 10:10:25;;;;;;;3.43;1.90;;;23.10;99.90;;;;;;5090102;28;20427;-70
2023/08/25 10:12:55;;;;;;;3.37;1.80;;;23.50;99.90;;;;;;5090147;28;20434;-70
2023/08/25 10:15:22;;;;;;;1.67;1.57;;;23.80;99.90;;;;;;5089622;28;20838;-69
2023/08/25 10:17:49;;;;;;;2.70;1.83;;;24.00;99.90;;;;;;5089422;28;20566;-70
2023/08/25 10:20:16;;;;;;;3.70;2.10;;;24.10;99.90;;;;;;5087981;28;20513;-70
2023/08/25 10:22:49;;;;;;;2.63;1.53;;;24.30;99.90;;;;;;5087901;28;20563;-70
2023/08/25 10:25:17;;;;;;;9.47;2.10;;;24.50;99.90;;;;;;5089286;28;20976;-70
2023/08/25 10:27:44;;;;;;;2.87;2.10;;;24.60;99.90;;;;;;5089381;28;20519;-70
2023/08/25 10:30:11;;;;;;;5.20;2.30;;;24.90;99.90;;;;;;5087747;28;20892;-70
2023/08/25 10:32:56;;;;;;;5.57;2.07;;;25.30;99.90;;;;;;5089281;28;20973;-70
2023/08/25 10:35:44;;;;;;;3.03;2.30;;;25.40;99.90;;;;;;5089112;28;20591;-71
2023/08/25 10:38:22;;;;;;;2.93;1.80;;;25.20;99.90;;;;;;5089046;28;20467;-69
2023/08/25 10:41:13;;;;;;;2.03;1.93;;;25.40;99.90;;;;;;5089059;28;20977;-69
2023/08/25 10:43:40;;;;;;;2.10;1.90;;;25.50;99.90;;;;;;5087565;28;20420;-69
2023/08/25 10:46:07;;;;;;;2.10;1.90;;;25.40;99.90;;;;;;5087485;28;20423;-69
2023/08/25 10:48:32;;;;;;;1.90;1.80;;;25.50;99.90;;;;;;5089159;28;20924;-70
2023/08/25 10:51:09;;;;;;;2.77;2.00;;;25.70;99.90;;;;;;5088847;28;20426;-70
2023/08/25 10:53:42;;;;;;;1.60;1.50;;;25.60;99.90;;;;;;5086856;28;20201;-70
2023/08/25 10:56:17;;;;;;;2.73;2.20;;;25.40;99.90;;;;;;5088650;28;20503;-70
2023/08/25 10:58:58;;;;;;;4.47;2.73;;;25.40;99.90;;;;;;5088367;28;20463;-69
2023/08/25 11:01:33;;;;;;;2.73;2.07;;;25.50;99.90;;;;;;5088274;28;20427;-71
2023/08/25 11:04:23;;;;;;;3.30;2.23;;;25.50;99.90;;;;;;5088574;28;20515;-69
2023/08/25 11:06:53;;;;;;;6.83;2.10;;;25.70;99.90;;;;;;5076836;28;20428;-71
2023/08/25 11:09:26;;;;;;;2.17;2.03;;;25.60;99.90;;;;;;5089426;28;20425;-71
2023/08/25 11:12:08;;;;;;;5.60;1.83;;;25.80;99.90;;;;;;5088904;28;20419;-70
2023/08/25 11:14:36;;;;;;;3.87;2.40;;;25.90;99.90;;;;;;5087780;28;20444;-70
2023/08/25 11:17:07;;;;;;;2.13;1.90;;;26.00;99.90;;;;;;5087115;28;20939;-71
2023/08/25 11:19:36;;;;;;;2.10;1.77;;;26.10;99.90;;;;;;5088804;28;20901;-70
2023/08/25 11:22:20;;;;;;;2.23;1.90;;;25.90;99.90;;;;;;5087336;28;20421;-70
2023/08/25 11:24:46;;;;;;;2.50;2.30;;;25.80;99.90;;;;;;5088952;28;20932;-71
2023/08/25 11:27:14;;;;;;;3.90;2.63;;;25.80;99.90;;;;;;5088608;28;20413;-71
2023/08/25 11:29:44;;;;;;;3.13;2.60;;;25.60;99.90;;;;;;5088492;28;20235;-71
2023/08/25 11:32:14;;;;;;;2.13;2.00;;;25.60;99.90;;;;;;5087565;28;20834;-71
2023/08/25 11:34:40;;;;;;;2.43;2.20;;;25.50;99.90;;;;;;5087279;28;20951;-73
2023/08/25 11:37:06;;;;;;;4.60;2.27;;;25.50;99.90;;;;;;5088263;28;20460;-70
2023/08/25 11:39:32;;;;;;;7.10;2.73;;;25.50;99.90;;;;;;5088263;28;20473;-70
2023/08/25 11:41:58;;;;;;;14.97;2.50;;;25.40;99.90;;;;;;5089012;28;20577;-69
2023/08/25 11:44:25;;;;;;;5.97;2.17;;;25.40;99.90;;;;;;5088414;28;20205;-71
2023/08/25 11:46:54;;;;;;;4.80;2.63;;;25.30;99.90;;;;;;5088652;28;20879;-70
2023/08/25 11:49:20;;;;;;;2.50;2.30;;;25.20;99.90;;;;;;5088446;28;20461;-70
2023/08/25 11:51:52;;;;;;;3.70;2.43;;;25.10;99.90;;;;;;5086767;28;20433;-70
2023/08/25 11:54:18;;;;;;;2.80;2.47;;;25.00;99.90;;;;;;5087771;28;20539;-70
2023/08/25 11:56:53;;;;;;;3.30;2.87;;;25.00;99.90;;;;;;5087976;28;20505;-70
2023/08/25 11:59:19;;;;;;;2.20;2.00;;;24.90;99.90;;;;;;5087660;28;20532;-70
2023/08/25 12:01:51;;;;;;;4.13;2.80;;;25.00;99.90;;;;;;5087454;28;20853;-70
2023/08/25 12:04:25;;;;;;;2.90;2.60;;;24.90;99.90;;;;;;5087342;28;20440;-71
2023/08/25 12:06:53;;;;;;;7.37;2.93;;;25.00;99.90;;;;;;5088076;28;20474;-70
2023/08/25 12:09:21;;;;;;;3.20;2.90;;;25.00;99.90;;;;;;5088153;28;20479;-70
2023/08/25 12:11:47;;;;;;;6.33;2.87;;;25.00;99.90;;;;;;5085721;28;20423;-69
2023/08/25 12:14:30;;;;;;;5.10;2.90;;;25.10;99.90;;;;;;5088126;28;20441;-70
2023/08/25 12:16:57;;;;;;;5.83;3.03;;;25.20;99.90;;;;;;5087783;28;20525;-70
2023/08/25 12:19:24;;;;;;;5.30;2.90;;;25.30;99.90;;;;;;5088486;28;20416;-71
2023/08/25 12:21:52;;;;;;;5.20;2.93;;;25.30;99.90;;;;;;5086265;28;21225;-71
2023/08/25 12:24:17;;;;;;;4.50;2.90;;;25.40;99.90;;;;;;5087619;28;20440;-71
2023/08/25 12:26:44;;;;;;;6.40;3.53;;;25.30;99.90;;;;;;5087319;28;20427;-71
2023/08/25 12:29:09;;;;;;;6.87;3.63;;;25.20;99.90;;;;;;5087302;28;20590;-70
2023/08/25 12:31:35;;;;;;;5.90;3.63;;;25.10;99.90;;;;;;5087172;28;20424;-71
2023/08/25 12:34:00;;;;;;;9.23;3.47;;;25.10;99.90;;;;;;5087011;28;20744;-70
2023/08/25 12:36:27;;;;;;;13.40;3.90;;;25.10;99.90;;;;;;5085593;28;20197;-70
2023/08/25 12:38:52;;;;;;;7.60;4.00;;;25.10;99.90;;;;;;5087082;28;20217;-70
2023/08/25 12:41:18;;;;;;;4.33;3.90;;;25.10;99.90;;;;;;5087023;28;20432;-71
2023/08/25 12:43:44;;;;;;;9.33;3.83;;;25.10;99.90;;;;;;5086910;28;20194;-69
2023/08/25 12:46:09;;;;;;;5.17;3.20;;;25.00;99.90;;;;;;5087185;28;20228;-71